| time (UTC) | temp C | wind direction | speed KPH | gust KPH | rain 1hr cm | rain 24hr cm | rain mn cm | humidity % | barometer mb |
| 20260508041515 | 11 | 188 | 0.0 | 3.2 | 0.00 | 0.00 | 0.00 | 83 | 1010.0 |
| 20260508040515 | 12 | 243 | 0.0 | 1.6 | 0.00 | 0.00 | 0.00 | 81 | 1009.9 |
| 20260508035515 | 12 | 0.0 | 0.0 | 0.00 | 0.00 | 0.00 | 79 | 1009.9 | |
| 20260508034515 | 13 | 199 | 0.0 | 4.8 | 0.00 | 0.00 | 0.00 | 76 | 1009.8 |
| 20260508033515 | 13 | 204 | 0.0 | 6.4 | 0.00 | 0.00 | 0.00 | 76 | 1009.8 |
| 20260508032515 | 13 | 179 | 0.0 | 1.6 | 0.00 | 0.00 | 0.00 | 75 | 1009.8 |
| 20260508031636 | 13 | 177 | 0.0 | 4.8 | 0.00 | 0.00 | 0.00 | 75 | 1009.8 |
| 20260508030536 | 13 | 0.0 | 0.0 | 0.00 | 0.00 | 0.00 | 74 | 1009.8 | |
| 20260508025515 | 12 | 0.0 | 0.0 | 0.00 | 0.00 | 0.00 | 75 | 1009.7 | |
| 20260508024515 | 13 | 0.0 | 0.0 | 0.00 | 0.00 | 0.00 | 74 | 1009.8 | |
| 20260508023515 | 13 | 225 | 1.6 | 8.0 | 0.00 | 0.00 | 0.00 | 74 | 1009.8 |
| 20260508022515 | 13 | 124 | 0.0 | 1.6 | 0.00 | 0.00 | 0.00 | 73 | 1009.8 |
| 20260508021515 | 13 | 206 | 1.6 | 8.0 | 0.00 | 0.00 | 0.00 | 72 | 1009.9 |
| 20260508020515 | 13 | 0.0 | 0.0 | 0.00 | 0.00 | 0.00 | 70 | 1009.8 | |
| 20260508015515 | 13 | 221 | 0.0 | 6.4 | 0.00 | 0.00 | 0.00 | 71 | 1009.8 |
| 20260508014515 | 13 | 224 | 1.6 | 11.3 | 0.00 | 0.00 | 0.00 | 71 | 1009.7 |
| 20260508013536 | 13 | 179 | 0.0 | 4.8 | 0.00 | 0.00 | 0.00 | 73 | 1009.6 |
| 20260508012515 | 13 | 228 | 1.6 | 4.8 | 0.00 | 0.00 | 0.00 | 74 | 1009.5 |
| 20260508011515 | 12 | 180 | 1.6 | 4.8 | 0.00 | 0.00 | 0.00 | 74 | 1009.3 |
| 20260508010515 | 12 | 211 | 0.0 | 4.8 | 0.00 | 0.00 | 0.00 | 78 | 1008.9 |
| 20260508005515 | 12 | 0.0 | 0.0 | 0.00 | 0.00 | 0.00 | 78 | 1008.8 | |
| 20260508004515 | 12 | 0.0 | 0.0 | 0.00 | 0.00 | 0.00 | 78 | 1008.7 | |
| 20260508003515 | 13 | 0.0 | 0.0 | 0.00 | 0.00 | 0.00 | 77 | 1008.5 | |
| 20260508002515 | 13 | 0.0 | 0.0 | 0.00 | 0.00 | 0.00 | 76 | 1008.5 | |
| 20260508001515 | 13 | 0.0 | 0.0 | 0.00 | 0.00 | 0.00 | 74 | 1008.5 | |
| 20260508000515 | 14 | 0.0 | 0.0 | 0.00 | 0.00 | 0.00 | 71 | 1008.3 | |
| 20260507235516 | 14 | 199 | 0.0 | 1.6 | 0.00 | 0.00 | 0.00 | 69 | 1008.3 |
| 20260507234536 | 15 | 193 | 0.0 | 3.2 | 0.00 | 0.00 | 0.00 | 67 | 1008.2 |
| 20260507233515 | 15 | 189 | 0.0 | 3.2 | 0.00 | 0.00 | 0.00 | 66 | 1008.1 |
| 20260507232515 | 15 | 188 | 3.2 | 8.0 | 0.00 | 0.00 | 0.00 | 65 | 1008.0 |
| 20260507231515 | 15 | 52 | 0.0 | 1.6 | 0.00 | 0.00 | 0.00 | 63 | 1007.9 |
| 20260507230516 | 16 | 178 | 1.6 | 8.0 | 0.00 | 0.00 | 0.00 | 63 | 1008.0 |
| 20260507225515 | 16 | 193 | 3.2 | 9.7 | 0.00 | 0.00 | 0.00 | 60 | 1007.8 |
| 20260507224515 | 16 | 187 | 3.2 | 11.3 | 0.00 | 0.00 | 0.00 | 59 | 1007.7 |
| 20260507223515 | 17 | 189 | 3.2 | 12.9 | 0.00 | 0.00 | 0.00 | 56 | 1007.6 |
| 20260507222535 | 17 | 195 | 3.2 | 11.3 | 0.00 | 0.00 | 0.00 | 56 | 1007.7 |
| 20260507221515 | 17 | 194 | 3.2 | 9.7 | 0.00 | 0.00 | 0.00 | 56 | 1007.7 |
| 20260507220515 | 17 | 185 | 3.2 | 9.7 | 0.00 | 0.00 | 0.00 | 56 | 1007.6 |
| 20260507215515 | 18 | 201 | 3.2 | 12.9 | 0.00 | 0.00 | 0.00 | 53 | 1007.7 |
| 20260507214555 | 18 | 200 | 1.6 | 9.7 | 0.00 | 0.00 | 0.00 | 52 | 1007.7 |
| 20260507213515 | 18 | 196 | 3.2 | 9.7 | 0.00 | 0.00 | 0.00 | 52 | 1007.8 |
| 20260507212515 | 18 | 228 | 3.2 | 11.3 | 0.00 | 0.00 | 0.00 | 50 | 1007.8 |
| 20260507211515 | 18 | 198 | 3.2 | 11.3 | 0.00 | 0.00 | 0.00 | 50 | 1008.0 |
| 20260507210515 | 19 | 187 | 3.2 | 9.7 | 0.00 | 0.00 | 0.00 | 41 | 1007.9 |
| 20260507205535 | 20 | 154 | 1.6 | 6.4 | 0.00 | 0.00 | 0.00 | 44 | 1007.8 |
| 20260507204515 | 19 | 142 | 3.2 | 8.0 | 0.00 | 0.00 | 0.00 | 49 | 1007.8 |
| 20260507203515 | 19 | 113 | 1.6 | 4.8 | 0.00 | 0.00 | 0.00 | 49 | 1007.7 |
| 20260507202515 | 19 | 244 | 0.0 | 4.8 | 0.00 | 0.00 | 0.00 | 48 | 1007.7 |
| 20260507201515 | 19 | 197 | 3.2 | 8.0 | 0.00 | 0.00 | 0.00 | 50 | 1007.9 |
| 20260507200515 | 20 | 205 | 1.6 | 6.4 | 0.00 | 0.00 | 0.00 | 43 | 1007.7 |
| 20260507195515 | 20 | 315 | 1.6 | 9.7 | 0.00 | 0.00 | 0.00 | 40 | 1007.8 |
| 20260507194515 | 20 | 233 | 1.6 | 11.3 | 0.00 | 0.00 | 0.00 | 42 | 1007.9 |
| 20260507193515 | 20 | 350 | 1.6 | 11.3 | 0.00 | 0.00 | 0.00 | 40 | 1008.2 |
| 20260507192535 | 20 | 5 | 6.4 | 12.9 | 0.00 | 0.00 | 0.00 | 41 | 1008.2 |
| 20260507191515 | 20 | 141 | 0.0 | 4.8 | 0.00 | 0.00 | 0.00 | 40 | 1008.3 |
| 20260507190515 | 20 | 338 | 1.6 | 6.4 | 0.00 | 0.00 | 0.00 | 42 | 1008.5 |
| 20260507185515 | 19 | 78 | 1.6 | 6.4 | 0.00 | 0.00 | 0.00 | 42 | 1008.5 |
| 20260507184536 | 19 | 32 | 4.8 | 16.1 | 0.00 | 0.00 | 0.00 | 42 | 1008.6 |
| 20260507183515 | 19 | 340 | 3.2 | 8.0 | 0.00 | 0.00 | 0.00 | 42 | 1008.8 |
| 20260507182515 | 18 | 296 | 1.6 | 6.4 | 0.00 | 0.00 | 0.00 | 43 | 1009.1 |
| 20260507181535 | 18 | 358 | 3.2 | 8.0 | 0.00 | 0.00 | 0.00 | 43 | 1009.3 |
| 20260507180515 | 18 | 23 | 1.6 | 6.4 | 0.00 | 0.00 | 0.00 | 42 | 1009.3 |
| 20260507175516 | 18 | 303 | 3.2 | 9.7 | 0.00 | 0.00 | 0.00 | 43 | 1009.4 |
| 20260507174515 | 18 | 77 | 4.8 | 9.7 | 0.00 | 0.00 | 0.00 | 43 | 1009.4 |
| 20260507173515 | 18 | 326 | 4.8 | 12.9 | 0.00 | 0.00 | 0.00 | 43 | 1009.3 |
| 20260507172535 | 18 | 144 | 3.2 | 9.7 | 0.00 | 0.00 | 0.00 | 46 | 1009.4 |
| 20260507171535 | 18 | 295 | 1.6 | 9.7 | 0.00 | 0.00 | 0.00 | 44 | 1009.6 |
| 20260507170515 | 18 | 28 | 3.2 | 14.5 | 0.00 | 0.00 | 0.00 | 48 | 1009.9 |
| 20260507165516 | 18 | 24 | 1.6 | 11.3 | 0.00 | 0.00 | 0.00 | 48 | 1009.9 |
| 20260507164515 | 17 | 29 | 3.2 | 11.3 | 0.00 | 0.00 | 0.00 | 49 | 1010.2 |
| 20260507163535 | 18 | 323 | 3.2 | 8.0 | 0.00 | 0.00 | 0.00 | 52 | 1010.5 |
| 20260507162515 | 17 | 34 | 3.2 | 6.4 | 0.00 | 0.00 | 0.00 | 51 | 1010.7 |
| 20260507161515 | 17 | 10 | 4.8 | 12.9 | 0.00 | 0.00 | 0.00 | 52 | 1010.7 |
| 20260507160515 | 17 | 167 | 1.6 | 6.4 | 0.00 | 0.00 | 0.00 | 59 | 1010.8 |
| 20260507155516 | 16 | 25 | 1.6 | 4.8 | 0.00 | 0.00 | 0.00 | 60 | 1011.1 |
| 20260507154515 | 16 | 317 | 1.6 | 6.4 | 0.00 | 0.00 | 0.00 | 59 | 1011.0 |
| 20260507153515 | 15 | 8 | 1.6 | 4.8 | 0.00 | 0.00 | 0.00 | 63 | 1011.1 |
| 20260507152536 | 14 | 353 | 0.0 | 3.2 | 0.00 | 0.00 | 0.00 | 66 | 1011.2 |
| 20260507151515 | 14 | 33 | 0.0 | 3.2 | 0.00 | 0.00 | 0.00 | 65 | 1011.2 |
| 20260507150515 | 13 | 350 | 1.6 | 4.8 | 0.00 | 0.00 | 0.00 | 66 | 1011.5 |
| 20260507145515 | 13 | 297 | 0.0 | 4.8 | 0.00 | 0.00 | 0.00 | 66 | 1011.7 |
| 20260507144515 | 13 | 348 | 0.0 | 1.6 | 0.00 | 0.00 | 0.00 | 70 | 1011.5 |
| 20260507143515 | 13 | 1 | 1.6 | 8.0 | 0.00 | 0.00 | 0.00 | 68 | 1011.5 |
| 20260507142515 | 13 | 313 | 1.6 | 8.0 | 0.00 | 0.00 | 0.00 | 68 | 1011.7 |
| 20260507141515 | 13 | 0.0 | 0.0 | 0.00 | 0.00 | 0.00 | 69 | 1011.8 | |
| 20260507140515 | 13 | 1 | 1.6 | 8.0 | 0.00 | 0.00 | 0.00 | 68 | 1012.1 |
| 20260507135515 | 13 | 79 | 1.6 | 6.4 | 0.00 | 0.00 | 0.00 | 71 | 1012.2 |
| 20260507134535 | 13 | 21 | 3.2 | 9.7 | 0.00 | 0.00 | 0.00 | 71 | 1012.1 |
| 20260507133515 | 13 | 353 | 3.2 | 9.7 | 0.00 | 0.00 | 0.00 | 71 | 1012.1 |
| 20260507132515 | 13 | 355 | 1.6 | 11.3 | 0.00 | 0.00 | 0.00 | 76 | 1012.1 |
| 20260507131515 | 13 | 15 | 1.6 | 6.4 | 0.00 | 0.00 | 0.00 | 80 | 1012.1 |
| 20260507130515 | 13 | 315 | 0.0 | 6.4 | 0.00 | 0.00 | 0.00 | 82 | 1011.9 |
| 20260507125515 | 12 | 18 | 0.0 | 1.6 | 0.00 | 0.00 | 0.00 | 89 | 1011.9 |
| 20260507124536 | 12 | 298 | 0.0 | 3.2 | 0.00 | 0.00 | 0.00 | 88 | 1011.8 |
| 20260507123515 | 12 | 0.0 | 0.0 | 0.00 | 0.00 | 0.00 | 94 | 1011.8 | |
| 20260507122515 | 12 | 0.0 | 0.0 | 0.00 | 0.00 | 0.00 | 95 | 1011.8 | |
| 20260507121515 | 12 | 0.0 | 0.0 | 0.00 | 0.00 | 0.00 | 96 | 1011.9 | |
| 20260507120515 | 12 | 0.0 | 0.0 | 0.00 | 0.00 | 0.00 | 97 | 1011.7 | |
| 20260507115535 | 12 | 0.0 | 0.0 | 0.00 | 0.00 | 0.00 | 98 | 1011.7 | |
| 20260507114515 | 11 | 0.0 | 0.0 | 0.00 | 0.00 | 0.00 | 98 | 1011.8 | |
| 20260507113515 | 11 | 0.0 | 0.0 | 0.00 | 0.00 | 0.00 | 97 | 1011.7 | |
| 20260507112515 | 11 | 0.0 | 0.0 | 0.00 | 0.00 | 0.00 | 97 | 1011.5 | |
| 20260507111515 | 12 | 0.0 | 0.0 | 0.00 | 0.00 | 0.00 | 98 | 1011.5 | |
| 20260507110515 | 12 | 0.0 | 0.0 | 0.00 | 0.00 | 0.00 | 99 | 1011.3 | |
| 20260507105515 | 12 | 0.0 | 0.0 | 0.00 | 0.00 | 0.00 | 99 | 1011.3 | |
| 20260507104515 | 12 | 0.0 | 0.0 | 0.00 | 0.00 | 0.00 | 100 | 1011.2 | |
| 20260507103515 | 12 | 0.0 | 0.0 | 0.00 | 0.00 | 0.00 | 100 | 1011.1 | |
| 20260507102515 | 12 | 0.0 | 0.0 | 0.00 | 0.00 | 0.00 | 100 | 1010.9 | |
| 20260507101516 | 12 | 0.0 | 0.0 | 0.00 | 0.00 | 0.00 | 100 | 1010.8 | |
| 20260507100515 | 12 | 0.0 | 0.0 | 0.00 | 0.00 | 0.00 | 100 | 1010.7 | |
| 20260507095535 | 12 | 0.0 | 0.0 | 0.00 | 0.00 | 0.00 | 99 | 1010.8 | |
| 20260507094515 | 12 | 0.0 | 0.0 | 0.00 | 0.00 | 0.00 | 99 | 1010.8 | |
| 20260507093515 | 12 | 0.0 | 0.0 | 0.00 | 0.00 | 0.00 | 99 | 1010.8 | |
| 20260507092515 | 12 | 0.0 | 0.0 | 0.00 | 0.00 | 0.00 | 99 | 1010.9 | |
| 20260507091515 | 12 | 0.0 | 0.0 | 0.00 | 0.00 | 0.00 | 99 | 1010.7 | |
| 20260507090516 | 12 | 0.0 | 0.0 | 0.00 | 0.00 | 0.00 | 99 | 1010.5 | |
| 20260507085516 | 12 | 0.0 | 0.0 | 0.00 | 0.00 | 0.00 | 99 | 1010.5 | |
| 20260507084536 | 12 | 0.0 | 0.0 | 0.00 | 0.00 | 0.00 | 99 | 1010.2 | |
| 20260507083515 | 12 | 0.0 | 0.0 | 0.00 | 0.00 | 0.00 | 99 | 1009.7 | |
| 20260507082535 | 12 | 0.0 | 0.0 | 0.00 | 0.00 | 0.00 | 98 | 1010.0 | |
| 20260507081516 | 12 | 0.0 | 0.0 | 0.00 | 0.00 | 0.00 | 98 | 1010.0 | |
| 20260507080515 | 12 | 317 | 0.0 | 6.4 | 0.00 | 0.00 | 0.00 | 98 | 1009.7 |
| 20260507075515 | 12 | 35 | 1.6 | 4.8 | 0.00 | 0.00 | 0.00 | 98 | 1009.7 |
| 20260507074515 | 12 | 49 | 1.6 | 8.0 | 0.00 | 0.00 | 0.00 | 97 | 1009.9 |
| 20260507073515 | 12 | 3 | 0.0 | 3.2 | 0.00 | 0.00 | 0.00 | 97 | 1009.9 |
| 20260507072515 | 12 | 358 | 1.6 | 9.7 | 0.00 | 0.00 | 0.00 | 98 | 1009.9 |
| 20260507071515 | 12 | 2 | 4.8 | 12.9 | 0.00 | 0.00 | 0.00 | 98 | 1010.1 |
| 20260507070515 | 13 | 348 | 3.2 | 11.3 | 0.00 | 0.00 | 0.00 | 97 | 1010.1 |
| 20260507065515 | 13 | 39 | 3.2 | 14.5 | 0.00 | 0.00 | 0.00 | 97 | 1009.9 |
| 20260507064515 | 13 | 331 | 1.6 | 4.8 | 0.00 | 0.00 | 0.00 | 97 | 1010.0 |
| 20260507063515 | 13 | 350 | 3.2 | 14.5 | 0.00 | 0.00 | 0.00 | 98 | 1010.1 |
| 20260507062535 | 13 | 18 | 0.0 | 6.4 | 0.00 | 0.00 | 0.00 | 98 | 1009.9 |
| 20260507061535 | 14 | 0.0 | 0.0 | 0.00 | 0.00 | 0.00 | 98 | 1010.2 | |
| 20260507060515 | 14 | 291 | 0.0 | 9.7 | 0.00 | 0.00 | 0.00 | 98 | 1010.1 |
| 20260507055556 | 14 | 329 | 0.0 | 3.2 | 0.00 | 0.00 | 0.00 | 98 | 1010.2 |
| 20260507054516 | 14 | 127 | 0.0 | 4.8 | 0.00 | 0.00 | 0.00 | 98 | 1010.0 |
| 20260507053516 | 14 | 27 | 0.0 | 3.2 | 0.00 | 0.00 | 0.00 | 98 | 1010.1 |
| 20260507052515 | 15 | 343 | 0.0 | 3.2 | 0.00 | 0.00 | 0.00 | 98 | 1010.1 |
| 20260507051516 | 15 | 110 | 1.6 | 6.4 | 0.00 | 0.00 | 0.00 | 97 | 1010.0 |
| 20260507050515 | 15 | 174 | 0.0 | 4.8 | 0.00 | 0.00 | 0.00 | 96 | 1010.3 |
| 20260507045516 | 16 | 29 | 3.2 | 12.9 | 0.00 | 0.00 | 0.00 | 90 | 1009.6 |
| 20260507044536 | 16 | 216 | 0.0 | 1.6 | 0.00 | 0.00 | 0.00 | 89 | 1009.5 |
| 20260507043515 | 16 | 318 | 1.6 | 9.7 | 0.00 | 0.00 | 0.00 | 89 | 1009.6 |
| 20260507042515 | 16 | 293 | 0.0 | 4.8 | 0.00 | 0.00 | 0.00 | 89 | 1009.2 |